Time;durP1;ratioP1;P1;durP2;ratioP2;P2;SDS_P1;SDS_P2;PMS_P1;PMS_P2;Temp;Humidity;BMP_temperature;BMP_pressure;BME280_temperature;BME280_humidity;BME280_pressure;Samples;Min_cycle;Max_cycle;Signal;HPM_P1;HPM_P2
2023/02/01 00:00:22;;;;;;;15.90;11.97;;;3.10;99.90;;;;;;4992560;28;20667;-48
2023/02/01 00:02:51;;;;;;;17.63;12.00;;;3.10;99.90;;;;;;4992980;28;20647;-48
2023/02/01 00:05:18;;;;;;;16.13;10.87;;;3.10;99.90;;;;;;4993747;28;20264;-47
2023/02/01 00:07:48;;;;;;;13.00;10.33;;;3.10;99.90;;;;;;4992487;28;20275;-49
2023/02/01 00:10:15;;;;;;;17.30;12.63;;;3.00;99.90;;;;;;4993651;28;20198;-49
2023/02/01 00:12:42;;;;;;;17.10;12.50;;;3.00;99.90;;;;;;4993737;28;20587;-47
2023/02/01 00:15:09;;;;;;;21.17;12.40;;;2.90;99.90;;;;;;4991793;28;20252;-49
2023/02/01 00:17:36;;;;;;;14.53;11.37;;;2.90;99.90;;;;;;4991895;28;20268;-47
2023/02/01 00:20:06;;;;;;;16.00;11.43;;;2.90;99.90;;;;;;4993444;28;20198;-48
2023/02/01 00:22:33;;;;;;;20.70;11.33;;;2.90;99.90;;;;;;4984603;28;20232;-49
2023/02/01 00:25:00;;;;;;;18.90;11.50;;;2.80;99.90;;;;;;4993752;28;20213;-48
2023/02/01 00:27:27;;;;;;;13.67;10.60;;;2.80;99.90;;;;;;4992333;28;20229;-49
2023/02/01 00:29:55;;;;;;;14.73;11.27;;;2.80;99.90;;;;;;4991690;28;20209;-48
2023/02/01 00:32:25;;;;;;;17.10;10.40;;;2.70;99.90;;;;;;4991772;28;20202;-47
2023/02/01 00:34:52;;;;;;;13.63;9.50;;;2.70;99.90;;;;;;4993194;28;20636;-47
2023/02/01 00:37:24;;;;;;;11.87;9.77;;;2.70;99.90;;;;;;4986479;28;20634;-47
2023/02/01 00:39:51;;;;;;;15.00;10.30;;;2.70;99.90;;;;;;4992414;28;20209;-50
2023/02/01 00:42:18;;;;;;;17.37;11.53;;;2.70;99.90;;;;;;4993251;28;20209;-47
2023/02/01 00:44:45;;;;;;;16.83;10.97;;;2.70;99.90;;;;;;4992191;28;20789;-48
2023/02/01 00:47:12;;;;;;;16.67;11.13;;;2.80;99.90;;;;;;4990685;28;20229;-48
2023/02/01 00:49:39;;;;;;;15.80;11.63;;;2.80;99.90;;;;;;4973565;28;20206;-47
2023/02/01 00:52:05;;;;;;;15.40;11.73;;;2.70;99.90;;;;;;4989871;28;20198;-49
2023/02/01 00:54:35;;;;;;;14.97;11.87;;;2.70;99.90;;;;;;4990953;28;20377;-48
2023/02/01 00:57:02;;;;;;;15.80;9.90;;;2.80;99.90;;;;;;4992072;28;20263;-48
2023/02/01 00:59:29;;;;;;;14.03;9.63;;;2.90;99.90;;;;;;4992024;28;20279;-46
2023/02/01 01:01:56;;;;;;;12.93;9.80;;;2.90;99.90;;;;;;4992826;28;20197;-48
2023/02/01 01:04:23;;;;;;;14.93;8.77;;;2.90;99.90;;;;;;4985119;28;20268;-46
2023/02/01 01:06:50;;;;;;;11.87;8.80;;;2.90;99.90;;;;;;4988643;28;20276;-49
2023/02/01 01:09:17;;;;;;;10.27;8.47;;;2.90;99.90;;;;;;4992010;28;20200;-47
2023/02/01 01:11:45;;;;;;;14.03;10.10;;;3.00;99.90;;;;;;4991638;28;20254;-49
2023/02/01 01:14:12;;;;;;;13.60;9.60;;;3.00;99.90;;;;;;4990555;28;20261;-47
2023/02/01 01:16:39;;;;;;;12.77;9.50;;;3.00;99.90;;;;;;4992650;28;20208;-46
2023/02/01 01:19:06;;;;;;;12.10;9.67;;;3.10;99.90;;;;;;4992448;28;20221;-49
2023/02/01 01:21:33;;;;;;;14.70;10.53;;;3.10;99.90;;;;;;4991379;28;20230;-49
2023/02/01 01:24:00;;;;;;;17.17;10.50;;;3.20;99.90;;;;;;4992828;28;20283;-48
2023/02/01 01:26:29;;;;;;;19.43;10.10;;;3.10;99.90;;;;;;4987123;28;20237;-47
2023/02/01 01:28:59;;;;;;;13.87;11.07;;;3.10;99.90;;;;;;4992734;28;20348;-47
2023/02/01 01:31:27;;;;;;;11.50;9.40;;;3.20;99.90;;;;;;4992437;28;20276;-48
2023/02/01 01:33:56;;;;;;;15.70;10.00;;;3.20;99.90;;;;;;4992320;28;20658;-47
2023/02/01 01:36:24;;;;;;;13.70;9.70;;;3.20;99.90;;;;;;4992490;28;20283;-48
2023/02/01 01:38:52;;;;;;;13.50;9.77;;;3.20;99.90;;;;;;4991748;28;20209;-49
2023/02/01 01:41:21;;;;;;;15.03;10.00;;;3.20;99.90;;;;;;4990374;28;20202;-48
2023/02/01 01:43:56;;;;;;;14.57;9.53;;;3.20;99.90;;;;;;4991422;28;20376;-47
2023/02/01 01:46:26;;;;;;;11.90;9.03;;;3.20;99.90;;;;;;4992057;28;20259;-48
2023/02/01 01:49:01;;;;;;;11.23;8.73;;;3.20;99.90;;;;;;4992214;28;20690;-47
2023/02/01 01:51:30;;;;;;;23.00;8.83;;;3.20;99.90;;;;;;4991316;28;20251;-48
2023/02/01 01:54:03;;;;;;;11.67;8.67;;;3.20;99.90;;;;;;4982056;28;20340;-47
2023/02/01 01:56:32;;;;;;;12.73;8.07;;;3.20;99.90;;;;;;4990076;28;20217;-48
2023/02/01 01:58:59;;;;;;;13.07;7.47;;;3.20;99.90;;;;;;4984261;28;20201;-48
2023/02/01 02:01:28;;;;;;;9.53;7.90;;;3.10;99.90;;;;;;4991709;28;20272;-47
2023/02/01 02:03:56;;;;;;;11.87;9.00;;;3.20;99.90;;;;;;4981624;28;20711;-48
2023/02/01 02:06:36;;;;;;;7.97;6.80;;;3.10;99.90;;;;;;4991865;28;20201;-48
2023/02/01 02:09:04;;;;;;;6.60;5.90;;;3.20;99.90;;;;;;4990019;28;20202;-47
2023/02/01 02:11:31;;;;;;;8.90;6.27;;;3.20;99.90;;;;;;4988129;28;20279;-48
2023/02/01 02:13:59;;;;;;;7.87;6.73;;;3.30;99.90;;;;;;4983548;28;20295;-48
2023/02/01 02:17:15;;;;;;;10.00;8.13;;;3.40;99.90;;;;;;4990557;28;20241;-47
2023/02/01 02:20:21;;;;;;;5.50;5.00;;;3.40;99.90;;;;;;4975543;28;20580;-48
2023/02/01 02:23:34;;;;;;;6.63;5.93;;;3.40;99.90;;;;;;4990355;28;20273;-48
2023/02/01 02:26:35;;;;;;;7.23;6.37;;;3.40;99.90;;;;;;4955992;28;20213;-48
2023/02/01 02:29:47;;;;;;;7.80;5.30;;;3.40;99.90;;;;;;4988665;28;20209;-47
2023/02/01 02:32:41;;;;;;;7.33;5.27;;;3.40;99.90;;;;;;5013909;28;20205;-50
2023/02/01 02:35:19;;;;;;;8.67;6.33;;;3.30;99.90;;;;;;5013233;28;20188;-49
2023/02/01 02:37:53;;;;;;;9.13;6.57;;;3.30;99.90;;;;;;4989777;28;20626;-48
2023/02/01 02:40:29;;;;;;;9.60;6.90;;;3.30;99.90;;;;;;4990245;28;20711;-49
2023/02/01 02:48:58;;;;;;;10.57;7.33;;;3.20;99.90;;;;;;4924132;29;20685;-49
2023/02/01 03:05:24;;;;;;;8.63;7.33;;;2.90;99.90;;;;;;4994415;28;20271;-47
2023/02/01 03:08:01;;;;;;;11.33;7.33;;;2.90;99.90;;;;;;4984248;28;20731;-48
2023/02/01 03:10:38;;;;;;;14.07;8.63;;;2.90;99.90;;;;;;4995096;28;20264;-49
2023/02/01 03:13:09;;;;;;;11.70;8.30;;;2.90;99.90;;;;;;4995174;28;20290;-47
2023/02/01 03:15:40;;;;;;;9.10;7.80;;;2.80;99.90;;;;;;4993636;28;20684;-49
2023/02/01 03:18:14;;;;;;;10.70;7.30;;;2.80;99.90;;;;;;4994491;28;20269;-48
2023/02/01 03:20:43;;;;;;;14.63;9.10;;;2.80;99.90;;;;;;4994824;28;20691;-49
2023/02/01 03:23:14;;;;;;;9.73;8.63;;;2.90;99.90;;;;;;4995048;28;20802;-49
2023/02/01 03:25:42;;;;;;;10.47;8.73;;;3.00;99.90;;;;;;4995140;28;20674;-48
2023/02/01 03:28:12;;;;;;;12.03;8.20;;;3.00;99.90;;;;;;4995311;28;20285;-47
2023/02/01 03:30:43;;;;;;;10.50;8.40;;;2.90;99.90;;;;;;4991641;28;20265;-48
2023/02/01 03:33:21;;;;;;;10.83;8.53;;;2.80;99.90;;;;;;4994705;28;20218;-47
2023/02/01 03:35:53;;;;;;;13.33;8.07;;;2.80;99.90;;;;;;4985858;28;20288;-49
2023/02/01 03:38:28;;;;;;;9.67;7.77;;;2.80;99.90;;;;;;4994761;28;20197;-47
2023/02/01 03:40:59;;;;;;;11.13;8.27;;;2.80;99.90;;;;;;4992493;28;20626;-49
2023/02/01 03:43:30;;;;;;;11.07;6.80;;;2.70;99.90;;;;;;4986355;28;20222;-48
2023/02/01 03:46:02;;;;;;;10.27;8.00;;;2.70;99.90;;;;;;4994418;28;20202;-49
2023/02/01 03:48:30;;;;;;;11.33;7.63;;;2.70;99.90;;;;;;4994088;28;20224;-49
2023/02/01 03:51:02;;;;;;;12.93;7.40;;;2.70;99.90;;;;;;4974950;28;20276;-46
2023/02/01 03:53:31;;;;;;;9.03;7.30;;;2.70;99.90;;;;;;4974754;28;20280;-49
2023/02/01 03:55:59;;;;;;;10.43;8.30;;;2.80;99.90;;;;;;4990881;28;20282;-46
2023/02/01 03:58:26;;;;;;;10.00;6.97;;;2.70;99.90;;;;;;4993900;28;20236;-47
2023/02/01 04:00:55;;;;;;;8.67;7.03;;;2.70;99.90;;;;;;4989266;28;20738;-49
2023/02/01 04:03:22;;;;;;;13.20;7.33;;;2.60;99.90;;;;;;4992248;28;20221;-48
2023/02/01 04:05:49;;;;;;;11.73;9.10;;;2.60;99.90;;;;;;4993072;28;20209;-49
2023/02/01 04:08:16;;;;;;;14.30;7.80;;;2.60;99.90;;;;;;4992778;28;20213;-47
2023/02/01 04:10:45;;;;;;;12.23;7.77;;;2.60;99.90;;;;;;4992846;28;20274;-48
2023/02/01 04:13:12;;;;;;;9.90;7.83;;;2.60;99.90;;;;;;4993752;28;20244;-48
2023/02/01 04:15:39;;;;;;;10.57;7.93;;;2.70;99.90;;;;;;5027600;23;20224;-51
2023/02/01 04:18:06;;;;;;;9.90;8.20;;;2.70;99.90;;;;;;5013304;28;20555;-51
2023/02/01 04:20:33;;;;;;;10.10;7.77;;;2.80;99.90;;;;;;5012979;28;20205;-51
2023/02/01 04:23:02;;;;;;;8.57;7.77;;;2.80;99.90;;;;;;5014239;28;20270;-51
2023/02/01 04:25:29;;;;;;;11.90;8.43;;;2.80;99.90;;;;;;5013363;28;20221;-50
2023/02/01 04:27:57;;;;;;;10.73;7.73;;;2.80;99.90;;;;;;5011734;28;20302;-51
2023/02/01 04:30:24;;;;;;;9.60;7.77;;;2.80;99.90;;;;;;5012793;28;20202;-51
2023/02/01 04:32:51;;;;;;;15.00;8.87;;;2.80;99.90;;;;;;5013801;28;20615;-50
2023/02/01 04:35:18;;;;;;;8.23;7.40;;;2.80;99.90;;;;;;5013873;28;20221;-49
2023/02/01 04:37:45;;;;;;;16.63;8.20;;;2.80;99.90;;;;;;5013942;28;20208;-50
2023/02/01 04:40:13;;;;;;;9.77;7.53;;;2.70;99.90;;;;;;5012882;28;20258;-51
2023/02/01 04:42:40;;;;;;;13.47;8.27;;;2.70;99.90;;;;;;5012395;28;20712;-51
2023/02/01 04:45:09;;;;;;;8.27;6.80;;;2.70;99.90;;;;;;5013701;28;20270;-51
2023/02/01 04:47:36;;;;;;;9.40;6.70;;;2.70;99.90;;;;;;5013799;28;20581;-50
2023/02/01 04:50:05;;;;;;;5.63;4.97;;;2.80;99.90;;;;;;5013661;28;20286;-51
2023/02/01 04:52:32;;;;;;;6.33;5.10;;;2.80;99.90;;;;;;5013299;28;20295;-50
2023/02/01 04:55:01;;;;;;;4.47;4.07;;;2.90;99.90;;;;;;5013453;28;20274;-50
2023/02/01 04:57:28;;;;;;;4.97;3.87;;;2.90;99.90;;;;;;5012477;28;20674;-50
2023/02/01 04:59:55;;;;;;;3.33;3.03;;;2.90;99.90;;;;;;5001466;28;20213;-51
2023/02/01 05:02:24;;;;;;;5.83;3.40;;;2.90;99.90;;;;;;5013842;28;20203;-50
2023/02/01 05:04:51;;;;;;;3.83;2.83;;;3.00;99.90;;;;;;5013628;28;20286;-51
2023/02/01 05:07:18;;;;;;;7.73;3.37;;;3.00;99.90;;;;;;5013535;28;20208;-50
2023/02/01 05:09:45;;;;;;;4.50;4.10;;;2.90;99.90;;;;;;5007454;28;20722;-50
2023/02/01 05:14:56;;;;;;;6.20;3.60;;;3.00;99.90;;;;;;5005266;28;20238;-50
2023/02/01 05:17:28;;;;;;;6.27;4.13;;;3.00;99.90;;;;;;4996658;28;20209;-50
2023/02/01 05:19:55;;;;;;;4.47;3.40;;;3.00;99.90;;;;;;5011776;28;20666;-50
2023/02/01 05:22:25;;;;;;;3.80;2.97;;;3.00;99.90;;;;;;5013047;28;20757;-50
2023/02/01 05:24:52;;;;;;;6.63;3.50;;;3.00;99.90;;;;;;5012288;28;20253;-50
2023/02/01 05:27:22;;;;;;;4.93;3.77;;;3.10;99.90;;;;;;5012647;28;20196;-48
2023/02/01 05:29:49;;;;;;;3.97;3.67;;;3.00;99.90;;;;;;5012056;28;20223;-49
2023/02/01 05:32:16;;;;;;;4.80;3.53;;;2.90;99.90;;;;;;5003802;28;20212;-51
2023/02/01 05:34:45;;;;;;;3.80;3.53;;;2.90;99.90;;;;;;4994720;28;20228;-50
2023/02/01 05:37:12;;;;;;;9.20;3.43;;;3.00;99.90;;;;;;5008015;28;20640;-51
2023/02/01 05:39:39;;;;;;;3.03;2.53;;;3.00;99.90;;;;;;5011164;28;20555;-51
2023/02/01 05:42:06;;;;;;;7.13;3.27;;;3.00;99.90;;;;;;5012402;28;20236;-51
2023/02/01 05:44:33;;;;;;;5.90;4.00;;;3.00;99.90;;;;;;5011961;28;20749;-51
2023/02/01 05:47:00;;;;;;;6.20;3.80;;;3.10;99.90;;;;;;5011469;28;20689;-50
2023/02/01 05:49:27;;;;;;;6.43;3.57;;;3.00;99.90;;;;;;5006257;28;20224;-50
2023/02/01 05:51:55;;;;;;;6.93;4.10;;;3.10;99.90;;;;;;5007415;28;20205;-50
2023/02/01 05:54:22;;;;;;;5.97;3.93;;;3.00;99.90;;;;;;5011451;28;20204;-50
2023/02/01 05:56:49;;;;;;;7.63;3.93;;;3.00;99.90;;;;;;5012280;28;20200;-51
2023/02/01 05:59:16;;;;;;;8.50;4.57;;;2.90;99.90;;;;;;5012631;28;20205;-50
2023/02/01 06:01:43;;;;;;;7.80;3.67;;;2.80;99.90;;;;;;5012098;28;20702;-51
2023/02/01 06:04:10;;;;;;;5.00;4.13;;;2.70;99.90;;;;;;5012526;28;20632;-51
2023/02/01 06:06:37;;;;;;;8.20;4.10;;;2.60;99.90;;;;;;5011424;28;20229;-50
2023/02/01 06:09:06;;;;;;;10.80;5.63;;;2.50;99.90;;;;;;5011966;28;20698;-50
2023/02/01 06:11:33;;;;;;;5.00;3.97;;;2.50;99.90;;;;;;5011880;28;20204;-48
2023/02/01 06:14:00;;;;;;;5.67;4.33;;;2.50;99.90;;;;;;5010722;28;20203;-51
2023/02/01 06:16:29;;;;;;;8.63;3.67;;;2.60;99.90;;;;;;5010798;28;20232;-50
2023/02/01 06:18:56;;;;;;;5.63;4.50;;;2.50;99.90;;;;;;5008130;28;20251;-51
2023/02/01 06:21:24;;;;;;;9.30;3.60;;;2.60;99.90;;;;;;5007641;28;20687;-51
2023/02/01 06:23:51;;;;;;;4.57;3.33;;;2.50;99.90;;;;;;5011874;28;20200;-50
2023/02/01 06:26:19;;;;;;;5.10;3.63;;;2.60;99.90;;;;;;5011918;28;20224;-50
2023/02/01 06:28:47;;;;;;;20.03;11.80;;;2.60;99.90;;;;;;5011294;28;20260;-51
2023/02/01 06:31:14;;;;;;;8.13;4.53;;;2.70;99.90;;;;;;5011585;28;20251;-51
2023/02/01 06:33:41;;;;;;;7.27;3.60;;;2.60;99.90;;;;;;5008766;28;20196;-51
2023/02/01 06:36:11;;;;;;;5.50;4.20;;;2.60;99.90;;;;;;5008373;28;20311;-51
2023/02/01 06:38:39;;;;;;;5.13;3.77;;;2.60;99.90;;;;;;5010955;28;20252;-51
2023/02/01 06:41:06;;;;;;;10.70;3.97;;;2.60;99.90;;;;;;5010077;28;20279;-51
2023/02/01 06:43:35;;;;;;;5.90;3.70;;;2.60;99.90;;;;;;5010678;28;20621;-51
2023/02/01 06:46:03;;;;;;;5.40;4.17;;;2.60;99.90;;;;;;5010099;28;20297;-51
2023/02/01 06:48:30;;;;;;;8.07;3.50;;;2.60;99.90;;;;;;5002430;28;20282;-51
2023/02/01 06:50:57;;;;;;;4.20;3.87;;;2.50;99.90;;;;;;5009341;28;20212;-49
2023/02/01 06:53:25;;;;;;;5.30;4.07;;;2.60;99.90;;;;;;5010679;28;20208;-51
2023/02/01 06:55:56;;;;;;;6.33;4.17;;;2.60;99.90;;;;;;5002357;28;20240;-49
2023/02/01 06:58:23;;;;;;;9.07;4.47;;;2.60;99.90;;;;;;5003032;28;20201;-51
2023/02/01 07:00:53;;;;;;;7.20;4.10;;;2.60;99.90;;;;;;4999367;28;20199;-51
2023/02/01 07:03:20;;;;;;;4.60;3.87;;;2.60;99.90;;;;;;5004504;28;20609;-51
2023/02/01 07:05:47;;;;;;;3.97;3.57;;;2.60;99.90;;;;;;5010790;28;20236;-51
2023/02/01 07:08:14;;;;;;;3.77;3.37;;;2.60;99.90;;;;;;5001942;28;20220;-51
2023/02/01 07:10:41;;;;;;;10.30;6.63;;;2.60;99.90;;;;;;5003362;28;20205;-51
2023/02/01 07:13:08;;;;;;;5.75;4.13;;;2.50;99.90;;;;;;4996402;28;20530;-50
2023/02/01 07:15:35;;;;;;;4.97;3.23;;;2.60;99.90;;;;;;5008013;28;20229;-51
2023/02/01 07:18:04;;;;;;;4.53;3.70;;;2.60;99.90;;;;;;5007885;28;20199;-50
2023/02/01 07:20:31;;;;;;;5.00;3.70;;;2.60;99.90;;;;;;5000078;28;20200;-51
2023/02/01 07:22:58;;;;;;;6.40;3.27;;;2.60;99.90;;;;;;4991725;28;20667;-50
2023/02/01 07:25:25;;;;;;;8.13;3.67;;;2.60;99.90;;;;;;4997014;28;20354;-51
2023/02/01 07:27:52;;;;;;;3.47;3.17;;;2.60;99.90;;;;;;5010225;28;20657;-52
2023/02/01 07:30:19;;;;;;;6.83;3.67;;;2.60;99.90;;;;;;5004748;28;20266;-49
2023/02/01 07:32:46;;;;;;;7.67;3.87;;;2.70;99.90;;;;;;5008819;28;20897;-50
2023/02/01 07:35:15;;;;;;;4.27;2.63;;;2.70;99.90;;;;;;5009344;28;20220;-51
2023/02/01 07:37:42;;;;;;;3.97;3.43;;;2.70;99.90;;;;;;4996602;28;20256;-50
2023/02/01 07:40:10;;;;;;;6.80;4.20;;;2.70;99.90;;;;;;5011289;28;20246;-52
2023/02/01 07:42:37;;;;;;;3.47;2.77;;;2.80;99.90;;;;;;5012641;28;20204;-51
2023/02/01 07:45:05;;;;;;;4.00;3.10;;;2.80;99.90;;;;;;5013444;28;20278;-50
2023/02/01 07:47:32;;;;;;;6.00;2.83;;;2.80;99.90;;;;;;5014497;28;20209;-50
2023/02/01 07:49:59;;;;;;;4.03;3.33;;;2.80;99.90;;;;;;5014160;28;20278;-51
2023/02/01 07:52:30;;;;;;;7.63;4.47;;;2.80;99.90;;;;;;5013757;28;20258;-50
2023/02/01 07:54:57;;;;;;;5.67;4.27;;;2.80;99.90;;;;;;5006261;28;20303;-49
2023/02/01 07:57:25;;;;;;;3.47;3.07;;;2.90;99.90;;;;;;5014660;28;20262;-51
2023/02/01 08:02:37;;;;;;;3.20;2.90;;;3.00;99.90;;;;;;5013656;28;20224;-49
2023/02/01 08:05:04;;;;;;;9.43;4.23;;;2.90;99.90;;;;;;5014017;28;20709;-51
2023/02/01 08:07:33;;;;;;;3.50;2.97;;;3.00;99.90;;;;;;5013281;28;20203;-51
2023/02/01 08:10:00;;;;;;;6.10;3.10;;;3.00;99.90;;;;;;5005490;28;20240;-51
2023/02/01 08:12:27;;;;;;;7.27;4.07;;;3.10;99.90;;;;;;4994585;28;20201;-52
2023/02/01 08:14:56;;;;;;;6.63;2.97;;;3.00;99.90;;;;;;5012612;28;20235;-51
2023/02/01 08:17:24;;;;;;;5.80;2.60;;;2.90;99.90;;;;;;5008834;28;20211;-50
2023/02/01 08:19:51;;;;;;;5.47;3.23;;;2.90;99.90;;;;;;5005871;28;20197;-51
2023/02/01 08:22:18;;;;;;;6.60;3.97;;;2.90;99.90;;;;;;5013849;28;20678;-51
2023/02/01 08:24:49;;;;;;;7.80;3.87;;;2.90;99.90;;;;;;5014039;28;20239;-51
2023/02/01 08:27:16;;;;;;;7.10;3.30;;;2.90;99.90;;;;;;5009995;28;20512;-51
2023/02/01 08:29:42;;;;;;;9.37;3.40;;;2.90;99.90;;;;;;5013606;28;20273;-50
2023/02/01 08:32:09;;;;;;;4.27;3.17;;;2.90;99.90;;;;;;5013608;28;20626;-51
2023/02/01 08:34:36;;;;;;;6.17;3.67;;;2.90;99.90;;;;;;5011985;28;20220;-52
2023/02/01 08:37:03;;;;;;;4.67;3.63;;;2.90;99.90;;;;;;5009657;28;20197;-51
2023/02/01 08:39:30;;;;;;;4.17;3.73;;;3.00;99.90;;;;;;5013472;28;20292;-51
2023/02/01 08:44:43;;;;;;;4.00;3.70;;;3.00;99.90;;;;;;5013531;28;20250;-49
2023/02/01 08:47:11;;;;;;;9.93;4.10;;;3.00;99.90;;;;;;5013561;28;20258;-50
2023/02/01 08:49:38;;;;;;;6.07;3.33;;;3.10;99.90;;;;;;5013672;28;20264;-51
2023/02/01 08:52:05;;;;;;;9.50;3.90;;;3.20;99.90;;;;;;5012382;28;20681;-50
2023/02/01 08:54:32;;;;;;;5.30;3.97;;;3.30;99.90;;;;;;5013289;28;20197;-51
2023/02/01 08:57:00;;;;;;;7.67;4.67;;;3.30;99.90;;;;;;5008541;28;20201;-51
2023/02/01 08:59:27;;;;;;;13.03;4.53;;;3.30;99.90;;;;;;5009220;28;20675;-51
2023/02/01 09:01:55;;;;;;;6.97;4.77;;;3.30;99.90;;;;;;5013415;28;20208;-50
2023/02/01 09:04:22;;;;;;;7.23;3.97;;;3.50;99.90;;;;;;5012083;28;20232;-49
2023/02/01 09:06:49;;;;;;;4.50;3.97;;;3.50;99.90;;;;;;5013064;28;20200;-50
2023/02/01 09:09:16;;;;;;;6.67;3.67;;;3.50;99.90;;;;;;5012275;28;20217;-51
2023/02/01 09:11:43;;;;;;;4.00;3.57;;;3.50;99.90;;;;;;5013087;28;20246;-50
2023/02/01 09:14:11;;;;;;;7.13;4.07;;;3.60;99.90;;;;;;5012954;28;20208;-50
2023/02/01 09:16:38;;;;;;;5.73;3.67;;;3.70;99.90;;;;;;5012985;28;20217;-51
2023/02/01 09:19:05;;;;;;;5.37;3.90;;;3.70;99.90;;;;;;5013109;28;20593;-51
2023/02/01 09:21:32;;;;;;;7.57;4.20;;;3.60;99.90;;;;;;5012360;28;20747;-51
2023/02/01 09:23:59;;;;;;;7.83;4.20;;;3.60;99.90;;;;;;5012277;28;20585;-51
2023/02/01 09:26:26;;;;;;;4.83;3.73;;;3.60;99.90;;;;;;5012924;28;20274;-51
2023/02/01 09:28:53;;;;;;;7.27;3.73;;;3.60;99.90;;;;;;5012806;28;20223;-51
2023/02/01 09:31:22;;;;;;;4.67;3.17;;;3.60;99.90;;;;;;5004576;28;20210;-51
2023/02/01 09:33:49;;;;;;;7.80;3.43;;;3.70;99.90;;;;;;5012666;28;20252;-51
2023/02/01 09:36:16;;;;;;;4.77;4.23;;;3.70;99.90;;;;;;5012274;28;20260;-51
2023/02/01 09:38:43;;;;;;;6.13;4.80;;;3.80;99.90;;;;;;5012613;28;20208;-50
2023/02/01 09:41:32;;;;;;;5.90;4.13;;;3.80;99.90;;;;;;5012408;28;20216;-51
2023/02/01 09:44:07;;;;;;;7.50;3.97;;;3.80;99.90;;;;;;5012101;28;20201;-50
2023/02/01 09:46:35;;;;;;;7.20;3.90;;;3.90;99.90;;;;;;4993862;28;20297;-52
2023/02/01 09:49:07;;;;;;;7.57;3.73;;;4.00;99.90;;;;;;5012407;28;20286;-50
2023/02/01 09:51:37;;;;;;;10.70;5.70;;;4.00;99.90;;;;;;5012279;28;20210;-51
2023/02/01 09:54:10;;;;;;;7.80;4.37;;;4.10;99.90;;;;;;5012351;28;20205;-51
2023/02/01 09:56:45;;;;;;;9.13;4.93;;;4.10;99.90;;;;;;5012135;28;20780;-51
2023/02/01 09:59:27;;;;;;;6.93;4.43;;;4.00;99.90;;;;;;5012296;28;20254;-52
2023/02/01 10:01:55;;;;;;;5.10;3.57;;;4.10;99.90;;;;;;5007337;28;20210;-52
2023/02/01 10:04:22;;;;;;;5.07;2.77;;;4.10;99.90;;;;;;5006949;28;20247;-51
2023/02/01 10:07:08;;;;;;;8.33;4.13;;;4.10;99.90;;;;;;5012193;28;20200;-51
2023/02/01 10:09:50;;;;;;;7.43;3.40;;;4.00;99.90;;;;;;5011924;28;20222;-51
2023/02/01 10:12:59;;;;;;;7.10;3.40;;;4.00;99.90;;;;;;5012077;28;20204;-51
2023/02/01 10:15:35;;;;;;;8.90;4.00;;;4.10;99.90;;;;;;5008319;28;20720;-51
2023/02/01 10:18:18;;;;;;;8.23;3.87;;;4.10;99.90;;;;;;5010552;28;20274;-51
2023/02/01 10:20:56;;;;;;;4.30;3.90;;;4.20;99.90;;;;;;5011899;28;20199;-52
2023/02/01 10:23:41;;;;;;;8.03;4.07;;;4.30;99.90;;;;;;5011671;28;20259;-50
2023/02/01 10:26:15;;;;;;;5.97;4.40;;;4.30;99.90;;;;;;5012043;28;20296;-51
2023/02/01 10:28:43;;;;;;;5.30;3.80;;;4.20;99.90;;;;;;5011311;28;20263;-50
2023/02/01 10:31:10;;;;;;;10.20;5.60;;;4.20;99.90;;;;;;5032269;22;20233;-50
2023/02/01 10:33:44;;;;;;;14.40;9.23;;;4.20;99.90;;;;;;5009986;28;20287;-48
2023/02/01 10:36:18;;;;;;;203.97;83.23;;;4.20;99.90;;;;;;5010673;28;20686;-50
2023/02/01 10:38:45;;;;;;;66.27;33.67;;;4.10;99.90;;;;;;5008863;28;20205;-49
2023/02/01 10:41:15;;;;;;;126.43;62.03;;;4.20;99.90;;;;;;4997513;28;20854;-49
2023/02/01 10:43:43;;;;;;;94.43;50.00;;;4.20;99.90;;;;;;4988343;28;20202;-51
2023/02/01 10:46:11;;;;;;;20.07;8.37;;;4.10;99.90;;;;;;4990797;28;20331;-52
2023/02/01 10:48:40;;;;;;;23.10;14.93;;;4.20;99.90;;;;;;4990923;28;20714;-51
2023/02/01 10:51:13;;;;;;;14.50;13.00;;;4.20;99.90;;;;;;4990719;28;20263;-52
2023/02/01 10:53:48;;;;;;;11.70;10.80;;;4.20;99.90;;;;;;4989397;28;20201;-52
2023/02/01 10:56:15;;;;;;;8.90;5.63;;;4.20;99.90;;;;;;4990775;28;20671;-52
2023/02/01 10:58:46;;;;;;;7.80;6.07;;;4.30;99.90;;;;;;4989487;28;20206;-52
2023/02/01 11:01:19;;;;;;;14.87;7.00;;;4.30;99.90;;;;;;4990567;28;20240;-52
2023/02/01 11:03:54;;;;;;;12.50;8.20;;;4.40;99.90;;;;;;4988969;28;20209;-52
2023/02/01 11:06:27;;;;;;;16.07;9.23;;;4.60;99.90;;;;;;4990640;28;20213;-53
2023/02/01 11:08:57;;;;;;;11.03;6.70;;;4.60;99.90;;;;;;4990583;28;20220;-51
2023/02/01 11:11:25;;;;;;;9.23;6.50;;;4.60;99.90;;;;;;4990357;28;20401;-52
2023/02/01 11:13:58;;;;;;;9.67;6.23;;;4.60;99.90;;;;;;4989097;28;20197;-52
2023/02/01 11:16:31;;;;;;;10.57;6.53;;;4.70;99.90;;;;;;4991015;28;20212;-52
2023/02/01 11:19:00;;;;;;;10.77;7.17;;;4.80;99.90;;;;;;4986587;28;20201;-52
2023/02/01 11:21:28;;;;;;;10.63;6.70;;;5.00;99.90;;;;;;4994135;28;20240;-52
2023/02/01 11:23:55;;;;;;;7.20;4.60;;;5.10;99.90;;;;;;4992659;28;20252;-52
2023/02/01 11:26:24;;;;;;;4.93;3.83;;;5.20;99.90;;;;;;4994180;28;20260;-52
2023/02/01 11:28:58;;;;;;;6.33;4.23;;;5.20;99.90;;;;;;4994242;28;20212;-51
2023/02/01 11:31:27;;;;;;;8.37;5.10;;;5.30;99.90;;;;;;4992332;28;20303;-51
2023/02/01 11:34:06;;;;;;;6.00;4.70;;;5.30;99.90;;;;;;4995345;28;20201;-52
2023/02/01 11:36:36;;;;;;;7.20;6.50;;;5.30;99.90;;;;;;4993808;28;20205;-52
2023/02/01 11:39:23;;;;;;;9.77;5.87;;;5.30;99.90;;;;;;5009685;28;20201;-51
2023/02/01 11:42:02;;;;;;;11.97;6.70;;;5.40;99.90;;;;;;5013194;28;20279;-52
2023/02/01 11:44:36;;;;;;;8.03;3.40;;;5.40;99.90;;;;;;5013463;28;20204;-51
2023/02/01 11:47:23;;;;;;;3.33;2.87;;;5.40;99.90;;;;;;5005256;28;20206;-52
2023/02/01 11:49:52;;;;;;;3.23;2.90;;;5.40;99.90;;;;;;4987421;28;20285;-52
2023/02/01 11:52:41;;;;;;;6.43;2.83;;;5.30;99.90;;;;;;4992976;28;20274;-51
2023/02/01 11:55:25;;;;;;;3.67;2.67;;;5.40;99.90;;;;;;4990720;28;20838;-52
2023/02/01 11:58:02;;;;;;;2.97;2.67;;;5.30;99.90;;;;;;4993520;28;20267;-52
2023/02/01 12:00:45;;;;;;;2.70;2.50;;;5.20;99.90;;;;;;4993481;28;20208;-52
2023/02/01 12:03:40;;;;;;;3.17;2.87;;;5.20;99.90;;;;;;4993461;28;20210;-52
2023/02/01 12:06:13;;;;;;;3.20;2.90;;;5.20;99.90;;;;;;4992691;28;20202;-52
2023/02/01 12:09:03;;;;;;;5.00;2.70;;;5.30;99.90;;;;;;4993230;28;20206;-52
2023/02/01 12:11:47;;;;;;;8.83;4.87;;;5.30;99.90;;;;;;4992977;28;20224;-52
2023/02/01 12:14:32;;;;;;;7.43;5.13;;;5.40;99.90;;;;;;4993294;28;20272;-52
2023/02/01 12:17:19;;;;;;;6.20;4.40;;;5.30;99.90;;;;;;4993445;28;20201;-53
2023/02/01 12:20:04;;;;;;;2.97;2.57;;;5.50;99.90;;;;;;4993424;28;20209;-50
2023/02/01 12:22:45;;;;;;;3.03;2.53;;;5.50;99.90;;;;;;4991839;28;20253;-53
2023/02/01 12:25:25;;;;;;;3.83;2.70;;;5.60;99.90;;;;;;4987077;28;20691;-51
2023/02/01 12:28:15;;;;;;;5.10;2.77;;;5.40;99.90;;;;;;4991770;28;20251;-51
2023/02/01 12:31:17;;;;;;;4.13;3.20;;;5.40;99.90;;;;;;4987149;28;20725;-52
2023/02/01 12:34:04;;;;;;;3.13;2.70;;;5.50;99.90;;;;;;4982413;28;20203;-52
2023/02/01 12:36:37;;;;;;;6.00;3.40;;;5.50;99.90;;;;;;4988212;28;20230;-54
2023/02/01 12:39:16;;;;;;;5.67;4.70;;;5.50;99.90;;;;;;4991095;28;20200;-52
2023/02/01 12:41:58;;;;;;;11.37;4.57;;;5.60;99.90;;;;;;4991306;28;20217;-52
2023/02/01 12:44:41;;;;;;;5.53;4.50;;;5.60;99.90;;;;;;4991724;28;20275;-51
2023/02/01 12:47:17;;;;;;;5.67;5.07;;;5.60;99.90;;;;;;4986486;28;20211;-52
2023/02/01 12:49:52;;;;;;;5.80;5.20;;;5.60;99.90;;;;;;4990622;28;20281;-52
2023/02/01 12:52:28;;;;;;;4.80;4.10;;;5.70;99.90;;;;;;4990275;28;20775;-50
2023/02/01 12:55:00;;;;;;;4.43;3.63;;;5.80;99.90;;;;;;4988491;28;20271;-49
2023/02/01 12:57:32;;;;;;;6.43;3.70;;;5.80;99.90;;;;;;4990974;28;20257;-49
2023/02/01 13:00:09;;;;;;;4.40;4.00;;;5.90;99.90;;;;;;4985479;28;20248;-49
2023/02/01 13:02:43;;;;;;;3.67;3.37;;;5.90;99.90;;;;;;4987545;28;20704;-51
2023/02/01 13:05:17;;;;;;;5.47;4.47;;;6.00;99.90;;;;;;4990743;28;20207;-52
2023/02/01 13:07:49;;;;;;;8.63;3.63;;;6.00;99.90;;;;;;4991103;28;20265;-50
2023/02/01 13:10:21;;;;;;;6.07;4.17;;;6.00;99.90;;;;;;4991715;28;20284;-49
2023/02/01 13:12:55;;;;;;;5.50;3.40;;;6.10;99.90;;;;;;4988784;28;20234;-50
2023/02/01 13:15:27;;;;;;;5.27;3.67;;;6.10;99.90;;;;;;4990286;28;20259;-49
2023/02/01 13:17:58;;;;;;;3.70;2.70;;;6.10;99.90;;;;;;4988701;28;20205;-50
2023/02/01 13:20:32;;;;;;;3.87;3.60;;;6.10;99.90;;;;;;4991552;28;20272;-49
2023/02/01 13:23:04;;;;;;;14.17;5.13;;;6.10;99.90;;;;;;4989256;28;20653;-49
2023/02/01 13:25:38;;;;;;;5.37;3.90;;;6.20;99.90;;;;;;4990377;28;20206;-50
2023/02/01 13:28:13;;;;;;;3.70;2.63;;;6.20;99.90;;;;;;4990018;28;20200;-49
2023/02/01 13:30:55;;;;;;;5.30;4.53;;;6.10;99.90;;;;;;4989719;28;20221;-50
2023/02/01 13:33:53;;;;;;;7.40;4.63;;;6.10;99.90;;;;;;4988979;28;20202;-49
2023/02/01 13:36:47;;;;;;;6.13;4.03;;;6.10;99.90;;;;;;4985852;28;20202;-53
2023/02/01 13:39:52;;;;;;;5.33;3.47;;;6.10;99.90;;;;;;4986254;28;20249;-49
2023/02/01 13:42:26;;;;;;;4.40;4.00;;;6.20;99.90;;;;;;4976954;28;20369;-49